createdAt,value
2022-08-05T00:02:22.188Z,32.05
2022-08-05T00:04:55.421Z,32.10
2022-08-05T00:07:59.402Z,32.19
2022-08-05T00:10:11.280Z,32.12
2022-08-05T00:12:55.765Z,32.09
2022-08-05T00:15:58.200Z,32.08
2022-08-05T00:18:21.373Z,32.03
2022-08-05T00:20:50.928Z,32.00
2022-08-05T00:23:44.640Z,32.00
2022-08-05T00:26:07.331Z,32.01
2022-08-05T00:28:35.066Z,31.92
2022-08-05T00:31:04.458Z,31.75
2022-08-05T00:34:54.359Z,31.77
2022-08-05T00:37:09.801Z,31.71
2022-08-05T00:39:13.464Z,31.84
2022-08-05T00:41:51.867Z,31.98
2022-08-05T00:44:23.472Z,31.92
2022-08-05T00:47:02.245Z,31.78
2022-08-05T00:49:32.650Z,31.73
2022-08-05T00:52:00.684Z,31.68
2022-08-05T00:54:28.084Z,31.58
2022-08-05T00:56:57.124Z,31.59
2022-08-05T00:59:24.091Z,31.58
2022-08-05T01:01:51.435Z,31.74
2022-08-05T01:04:20.298Z,31.71
2022-08-05T01:06:56.774Z,31.64
2022-08-05T01:09:23.802Z,31.58
2022-08-05T01:12:04.521Z,31.37
2022-08-05T01:15:04.025Z,31.27
2022-08-05T01:17:53.741Z,31.47
2022-08-05T01:20:58.590Z,31.59
2022-08-05T01:24:02.791Z,31.75
2022-08-05T01:27:36.984Z,31.56
2022-08-05T01:30:19.052Z,31.44
2022-08-05T01:33:03.787Z,31.40
2022-08-05T01:35:51.042Z,31.47
2022-08-05T01:38:26.840Z,31.26
2022-08-05T01:41:01.451Z,31.39
2022-08-05T01:43:29.896Z,30.78
2022-08-05T01:46:07.290Z,30.17
2022-08-05T01:48:45.734Z,30.91
2022-08-05T01:51:18.741Z,31.13
2022-08-05T01:53:57.134Z,30.97
2022-08-05T01:58:12.975Z,31.03
2022-08-05T01:59:22.440Z,30.25
2022-08-05T02:01:52.181Z,30.91
2022-08-05T02:04:24.245Z,30.64
2022-08-05T02:06:52.983Z,30.64
2022-08-05T02:09:20.591Z,30.58
2022-08-05T02:12:13.152Z,30.89
2022-08-05T02:14:49.556Z,30.69
2022-08-05T02:18:27.730Z,30.58
2022-08-05T02:20:26.322Z,30.49
2022-08-05T02:23:06.071Z,30.38
2022-08-05T02:25:49.085Z,30.23
2022-08-05T02:28:29.218Z,30.48
2022-08-05T02:31:02.996Z,30.57
2022-08-05T02:33:38.825Z,30.62
2022-08-05T02:36:13.515Z,30.65
2022-08-05T02:38:53.336Z,30.78
2022-08-05T02:41:23.797Z,30.97
2022-08-05T02:44:05.892Z,30.82
2022-08-05T02:46:58.626Z,31.00
2022-08-05T02:49:36.915Z,30.99
2022-08-05T02:52:11.635Z,30.83
2022-08-05T02:54:50.656Z,30.93
2022-08-05T02:58:11.605Z,30.97
2022-08-05T03:00:09.870Z,30.93
2022-08-05T03:02:42.925Z,30.87
2022-08-05T03:05:12.637Z,30.38
2022-08-05T03:08:06.974Z,30.54
2022-08-05T03:10:28.884Z,30.54
2022-08-05T03:15:23.544Z,30.84
2022-08-05T03:17:55.978Z,30.89
2022-08-05T03:20:25.129Z,30.79
2022-08-05T03:22:55.289Z,30.51
2022-08-05T03:25:33.563Z,30.65
2022-08-05T03:28:14.129Z,30.64
2022-08-05T03:30:42.386Z,30.60
2022-08-05T03:33:09.891Z,30.59
2022-08-05T03:35:40.924Z,30.62
2022-08-05T03:38:11.630Z,30.71
2022-08-05T03:40:45.084Z,30.52
2022-08-05T03:43:59.324Z,30.16
2022-08-05T03:46:04.192Z,30.14
2022-08-05T03:48:35.312Z,29.88
2022-08-05T03:52:37.633Z,30.39
2022-08-05T03:55:06.890Z,30.36
2022-08-05T03:57:41.993Z,30.06
2022-08-05T04:00:15.674Z,30.25
2022-08-05T04:02:58.092Z,30.28
2022-08-05T04:05:35.556Z,30.21
2022-08-05T04:08:14.819Z,30.30
2022-08-05T04:10:56.571Z,30.00
2022-08-05T04:13:26.159Z,29.99
2022-08-05T04:16:14.407Z,29.65
2022-08-05T04:18:41.477Z,29.70
2022-08-05T04:21:10.918Z,29.75
2022-08-05T04:24:05.806Z,29.68
2022-08-05T04:26:26.378Z,29.46
2022-08-05T04:29:00.056Z,29.06
2022-08-05T04:31:27.601Z,28.57
2022-08-05T04:34:31.128Z,28.56
2022-08-05T04:36:52.485Z,28.60
2022-08-05T04:39:20.917Z,27.86
2022-08-05T04:41:51.051Z,27.93
2022-08-05T04:44:21.337Z,27.77
2022-08-05T04:47:00.070Z,28.34
2022-08-05T04:50:03.051Z,29.01
2022-08-05T04:52:27.474Z,29.38
2022-08-05T04:54:57.359Z,29.51
2022-08-05T04:57:29.170Z,29.66
2022-08-05T04:59:58.475Z,29.80
2022-08-05T05:02:36.594Z,29.76
2022-08-05T05:05:26.610Z,29.19
2022-08-05T05:07:56.521Z,29.49
2022-08-05T05:10:33.326Z,29.49
2022-08-05T05:13:01.697Z,29.59
2022-08-05T05:15:56.370Z,29.51
2022-08-05T05:18:30.996Z,29.51
2022-08-05T05:21:00.910Z,29.65
2022-08-05T05:23:38.814Z,29.63
2022-08-05T05:26:14.956Z,29.85
2022-08-05T05:28:42.920Z,29.83
2022-08-05T05:31:12.682Z,29.92
2022-08-05T05:33:59.872Z,29.69
2022-08-05T05:36:28.749Z,29.28
2022-08-05T05:38:57.262Z,29.52
2022-08-05T05:41:24.444Z,29.50
2022-08-05T05:43:56.872Z,29.59
2022-08-05T05:46:25.637Z,29.65
2022-08-05T05:48:52.620Z,29.16
2022-08-05T05:51:25.598Z,29.42
2022-08-05T05:53:58.099Z,29.40
2022-08-05T05:56:33.210Z,29.39
2022-08-05T05:59:06.956Z,29.27
2022-08-05T06:01:39.802Z,29.35
2022-08-05T06:04:12.971Z,29.25
2022-08-05T06:06:47.485Z,29.38
2022-08-05T06:09:25.402Z,29.26
2022-08-05T06:12:03.927Z,29.35
2022-08-05T06:14:32.312Z,29.33
2022-08-05T06:17:01.869Z,29.43
2022-08-05T06:19:34.411Z,29.64
2022-08-05T06:22:07.328Z,29.42
2022-08-05T06:24:42.062Z,29.41
2022-08-05T06:27:17.368Z,29.29
2022-08-05T06:30:16.703Z,29.18
2022-08-05T06:32:47.149Z,29.20
2022-08-05T06:35:15.560Z,29.34
2022-08-05T06:37:57.666Z,29.22
2022-08-05T06:40:28.099Z,29.40
2022-08-05T06:42:59.435Z,29.43
2022-08-05T06:46:04.188Z,29.38
2022-08-05T06:48:52.843Z,29.30
2022-08-05T06:51:00.442Z,29.25
2022-08-05T06:53:28.408Z,29.04
2022-08-05T06:55:58.483Z,28.99
2022-08-05T06:58:34.849Z,29.19
2022-08-05T07:01:05.940Z,29.28
2022-08-05T07:03:33.620Z,28.93
2022-08-05T07:06:05.845Z,29.10
2022-08-05T07:08:47.793Z,29.26
2022-08-05T07:11:22.220Z,29.32
2022-08-05T07:14:15.784Z,29.28
2022-08-05T07:18:01.085Z,29.45
2022-08-05T07:22:29.012Z,29.31
2022-08-05T07:25:09.512Z,29.47
2022-08-05T07:27:58.693Z,29.60
2022-08-05T07:30:39.734Z,29.59
2022-08-05T07:33:16.978Z,29.38
2022-08-05T07:36:03.389Z,29.21
2022-08-05T07:38:35.677Z,29.20
2022-08-05T07:42:07.843Z,29.15
2022-08-05T07:44:19.145Z,29.05
2022-08-05T07:46:49.484Z,29.38
2022-08-05T07:49:18.664Z,29.09
2022-08-05T07:51:53.356Z,28.39
2022-08-05T07:54:30.748Z,29.01
2022-08-05T07:57:02.613Z,29.62
2022-08-05T07:59:46.893Z,29.28
2022-08-05T08:02:17.617Z,29.39
2022-08-05T08:04:49.631Z,29.36
2022-08-05T08:07:22.381Z,29.50
2022-08-05T08:09:52.335Z,29.55
2022-08-05T08:12:35.521Z,29.87
2022-08-05T08:15:13.823Z,29.56
2022-08-05T08:17:50.709Z,29.40
2022-08-05T08:21:00.546Z,29.74
2022-08-05T08:24:01.801Z,29.69
2022-08-05T08:26:04.481Z,29.48
2022-08-05T08:28:37.533Z,29.71
2022-08-05T08:31:19.355Z,29.47
2022-08-05T08:33:46.958Z,29.54
2022-08-05T08:36:39.188Z,29.60
2022-08-05T08:39:15.143Z,29.21
2022-08-05T08:41:52.009Z,29.77
2022-08-05T08:45:22.624Z,29.51
2022-08-05T08:48:07.712Z,29.67
2022-08-05T08:50:30.997Z,29.49
2022-08-05T08:53:08.052Z,29.92
2022-08-05T08:56:05.015Z,29.71
2022-08-05T08:58:37.562Z,29.35
2022-08-05T09:01:16.321Z,29.48
2022-08-05T09:03:55.630Z,30.02
2022-08-05T09:06:29.993Z,29.71
2022-08-05T09:09:02.058Z,29.97
2022-08-05T09:11:51.394Z,29.99
2022-08-05T09:14:58.879Z,29.97
2022-08-05T09:17:40.811Z,29.84
2022-08-05T09:20:02.530Z,30.21
2022-08-05T09:23:09.444Z,30.36
2022-08-05T09:26:00.970Z,29.38
2022-08-05T09:28:31.669Z,29.89
2022-08-05T09:31:22.407Z,30.12
2022-08-05T09:34:01.071Z,29.87
2022-08-05T09:36:54.768Z,29.89
2022-08-05T09:39:27.695Z,30.34
2022-08-05T09:42:17.387Z,30.40
2022-08-05T09:44:56.392Z,30.79
2022-08-05T09:47:48.152Z,30.67
2022-08-05T09:50:38.054Z,30.91
2022-08-05T09:53:06.732Z,30.61
2022-08-05T09:55:57.428Z,30.70
2022-08-05T09:58:25.716Z,30.65
2022-08-05T10:01:13.429Z,30.94
2022-08-05T10:03:59.428Z,30.98
2022-08-05T10:06:28.251Z,31.56
2022-08-05T10:08:57.083Z,31.25
2022-08-05T10:11:24.182Z,31.41
2022-08-05T10:13:58.347Z,31.07
2022-08-05T10:16:41.614Z,30.59
2022-08-05T10:19:23.439Z,30.93
2022-08-05T10:22:02.975Z,30.61
2022-08-05T10:24:33.388Z,30.65
2022-08-05T10:27:07.593Z,30.82
2022-08-05T10:30:06.432Z,31.14
2022-08-05T10:32:54.349Z,31.65
2022-08-05T10:35:11.266Z,31.16
2022-08-05T10:37:44.676Z,30.87
2022-08-05T10:40:43.542Z,31.28
2022-08-05T10:43:36.559Z,31.55
2022-08-05T10:46:08.289Z,31.67
2022-08-05T10:48:56.868Z,30.84
2022-08-05T10:51:28.451Z,30.59
2022-08-05T10:54:05.914Z,30.74
2022-08-05T10:56:55.968Z,31.34
2022-08-05T11:00:04.324Z,32.43
2022-08-05T11:02:34.837Z,32.36
2022-08-05T11:05:10.673Z,32.26
2022-08-05T11:08:12.736Z,32.38
2022-08-05T11:10:50.274Z,32.19
2022-08-05T11:13:57.600Z,32.68
2022-08-05T11:16:47.730Z,33.10
2022-08-05T11:20:11.258Z,33.90
2022-08-05T11:22:42.400Z,33.58
2022-08-05T11:26:04.518Z,33.37
2022-08-05T11:28:36.005Z,34.07
2022-08-05T11:31:06.156Z,33.61
2022-08-05T11:33:46.728Z,33.22
2022-08-05T11:36:34.342Z,33.54
2022-08-05T11:39:13.619Z,32.70
2022-08-05T11:41:57.974Z,33.75
2022-08-05T11:44:53.064Z,33.43
2022-08-05T11:47:48.996Z,33.22
2022-08-05T11:50:14.262Z,33.51
2022-08-05T11:52:43.821Z,34.03
2022-08-05T11:55:13.540Z,33.94
2022-08-05T11:58:09.240Z,34.59
2022-08-05T12:00:38.425Z,33.92
2022-08-05T12:03:28.586Z,33.71
2022-08-05T12:06:05.845Z,35.22
2022-08-05T12:08:34.208Z,33.73
2022-08-05T12:11:10.044Z,33.05
2022-08-05T12:14:04.161Z,34.57
2022-08-05T12:16:38.457Z,35.74
2022-08-05T12:19:08.293Z,36.13
2022-08-05T12:21:44.239Z,35.82
2022-08-05T12:24:19.335Z,35.33
2022-08-05T12:26:52.877Z,36.04
2022-08-05T12:29:28.950Z,37.56
2022-08-05T12:32:07.588Z,35.95
2022-08-05T12:34:38.425Z,35.28
2022-08-05T12:37:10.926Z,35.00
2022-08-05T12:39:51.191Z,34.97
2022-08-05T12:42:21.201Z,36.54
2022-08-05T12:44:48.866Z,35.92
2022-08-05T12:47:30.440Z,35.29
2022-08-05T12:50:04.492Z,33.86
2022-08-05T12:52:39.059Z,37.49
2022-08-05T12:55:26.132Z,36.71
2022-08-05T12:58:52.742Z,36.23
2022-08-05T13:02:00.181Z,35.29
2022-08-05T13:03:42.084Z,35.90
2022-08-05T13:06:17.917Z,35.67
2022-08-05T13:08:51.834Z,36.88
2022-08-05T13:11:59.760Z,37.36
2022-08-05T13:14:24.891Z,36.77
2022-08-05T13:17:20.411Z,35.80
2022-08-05T13:20:23.623Z,36.62
2022-08-05T13:22:53.583Z,36.73
2022-08-05T13:25:22.056Z,38.07
2022-08-05T13:27:52.179Z,37.09
2022-08-05T13:30:34.476Z,38.68
2022-08-05T13:33:04.464Z,37.53
2022-08-05T13:35:47.160Z,38.45
2022-08-05T13:38:30.636Z,38.86
2022-08-05T13:41:01.239Z,38.49
2022-08-05T13:43:45.446Z,38.20
2022-08-05T13:46:16.293Z,37.99
2022-08-05T13:48:57.137Z,37.24
2022-08-05T13:51:36.548Z,38.44
2022-08-05T13:54:11.726Z,37.62
2022-08-05T13:56:45.524Z,37.54
2022-08-05T13:59:24.825Z,39.44
2022-08-05T14:02:00.018Z,39.37
2022-08-05T14:04:52.615Z,38.25
2022-08-05T14:07:55.731Z,37.31
2022-08-05T14:10:30.886Z,37.93
2022-08-05T14:12:59.441Z,36.83
2022-08-05T14:16:04.768Z,37.29
2022-08-05T14:18:18.262Z,36.67
2022-08-05T14:20:54.442Z,36.00
2022-08-05T14:23:24.704Z,35.73
2022-08-05T14:25:58.603Z,35.53
2022-08-05T14:28:30.571Z,35.20
2022-08-05T14:31:00.632Z,35.30
2022-08-05T14:33:32.624Z,34.98
2022-08-05T14:36:20.517Z,35.14
2022-08-05T14:38:49.571Z,35.56
2022-08-05T14:41:17.785Z,34.60
2022-08-05T14:44:01.853Z,35.12
2022-08-05T14:46:35.053Z,34.94
2022-08-05T14:49:07.259Z,35.16
2022-08-05T14:51:42.973Z,35.17
2022-08-05T14:54:28.367Z,35.32
2022-08-05T14:56:58.772Z,35.07
2022-08-05T14:59:29.786Z,35.09
2022-08-05T15:02:15.837Z,35.03
2022-08-05T15:04:43.757Z,34.32
2022-08-05T15:07:12.050Z,34.54
2022-08-05T15:10:01.574Z,34.64
2022-08-05T15:12:51.378Z,34.60
2022-08-05T15:15:17.400Z,34.37
2022-08-05T15:18:05.805Z,34.57
2022-08-05T15:20:33.159Z,33.95
2022-08-05T15:23:09.733Z,34.56
2022-08-05T15:25:51.236Z,34.35
2022-08-05T15:28:20.095Z,34.24
2022-08-05T15:30:55.279Z,34.55
2022-08-05T15:34:18.447Z,34.46
2022-08-05T15:36:17.812Z,34.50
2022-08-05T15:40:39.730Z,34.42
2022-08-05T15:41:55.940Z,33.83
2022-08-05T15:44:27.542Z,34.34
2022-08-05T15:46:55.761Z,34.72
2022-08-05T15:49:41.878Z,34.37
2022-08-05T15:52:52.306Z,34.84
2022-08-05T15:54:56.889Z,34.80
2022-08-05T15:57:24.357Z,34.20
2022-08-05T15:59:55.208Z,34.62
2022-08-05T16:02:25.586Z,34.46
2022-08-05T16:04:53.358Z,34.40
2022-08-05T16:07:23.047Z,34.16
2022-08-05T16:09:50.216Z,34.61
2022-08-05T16:12:20.403Z,34.20
2022-08-05T16:14:47.578Z,33.91
2022-08-05T16:17:14.599Z,33.99
2022-08-05T16:20:04.800Z,33.97
2022-08-05T16:22:34.364Z,33.94
2022-08-05T16:25:09.338Z,33.98
2022-08-05T16:28:00.058Z,33.88
2022-08-05T16:30:28.769Z,34.00
2022-08-05T16:32:56.877Z,33.69
2022-08-05T16:35:27.978Z,33.45
2022-08-05T16:38:02.491Z,33.44
2022-08-05T16:40:43.200Z,33.76
2022-08-05T16:43:19.508Z,33.44
2022-08-05T16:46:04.033Z,33.48
2022-08-05T16:48:35.533Z,33.40
2022-08-05T16:51:03.920Z,33.57
2022-08-05T16:54:04.112Z,33.33
2022-08-05T16:56:24.737Z,33.61
2022-08-05T16:58:51.950Z,33.43
2022-08-05T17:01:19.250Z,33.44
2022-08-05T17:03:46.826Z,33.21
2022-08-05T17:06:16.646Z,33.44
2022-08-05T17:08:52.282Z,33.16
2022-08-05T17:11:23.747Z,33.10
2022-08-05T17:14:00.420Z,33.25
2022-08-05T17:16:38.258Z,33.56
2022-08-05T17:19:07.303Z,33.35
2022-08-05T17:21:37.693Z,33.30
2022-08-05T17:24:28.378Z,33.17
2022-08-05T17:26:57.463Z,33.15
2022-08-05T17:29:33.467Z,33.02
2022-08-05T17:32:16.626Z,32.94
2022-08-05T17:34:48.042Z,32.78
2022-08-05T17:37:40.487Z,33.03
2022-08-05T17:40:12.166Z,33.10
2022-08-05T17:42:43.006Z,33.00
2022-08-05T17:45:21.282Z,32.94
2022-08-05T17:47:55.763Z,32.80
2022-08-05T17:50:28.888Z,33.08
2022-08-05T17:53:03.036Z,33.02
2022-08-05T17:55:37.976Z,33.13
2022-08-05T17:58:11.070Z,33.21
2022-08-05T18:00:45.516Z,33.02
2022-08-05T18:03:56.225Z,33.03
2022-08-05T18:06:11.313Z,33.01
2022-08-05T18:08:44.166Z,32.96
2022-08-05T18:11:23.876Z,32.80
2022-08-05T18:14:04.191Z,32.77
2022-08-05T18:16:33.521Z,32.99
2022-08-05T18:19:00.663Z,32.68
2022-08-05T18:21:28.199Z,32.69
2022-08-05T18:24:14.763Z,32.72
2022-08-05T18:26:42.147Z,32.69
2022-08-05T18:29:11.016Z,32.62
2022-08-05T18:31:38.551Z,32.67
2022-08-05T18:34:12.154Z,32.64
2022-08-05T18:36:41.378Z,32.59
2022-08-05T18:39:42.106Z,32.57
2022-08-05T18:42:04.580Z,32.76
2022-08-05T18:44:35.225Z,32.50
2022-08-05T18:47:16.240Z,32.46
2022-08-05T18:50:02.136Z,32.47
2022-08-05T18:52:33.704Z,32.65
2022-08-05T18:55:06.387Z,32.22
2022-08-05T18:57:49.964Z,32.18
2022-08-05T19:00:28.431Z,32.52
2022-08-05T19:03:04.289Z,32.23
2022-08-05T19:06:12.092Z,32.35
2022-08-05T19:08:20.299Z,32.12
2022-08-05T19:10:50.323Z,31.87
2022-08-05T19:13:18.044Z,31.27
2022-08-05T19:16:00.064Z,31.45
2022-08-05T19:18:31.569Z,31.39
2022-08-05T19:20:59.849Z,31.27
2022-08-05T19:24:05.321Z,31.48
2022-08-05T19:26:16.654Z,31.45
2022-08-05T19:28:44.679Z,31.29
2022-08-05T19:31:18.054Z,31.60
2022-08-05T19:33:56.802Z,31.48
2022-08-05T19:36:29.321Z,31.74
2022-08-05T19:39:01.064Z,31.71
2022-08-05T19:42:05.519Z,31.82
2022-08-05T19:44:19.144Z,31.39
2022-08-05T19:46:46.550Z,31.55
2022-08-05T19:49:17.528Z,31.52
2022-08-05T19:52:08.661Z,31.45
2022-08-05T19:54:35.655Z,31.68
2022-08-05T19:57:06.529Z,31.68
2022-08-05T19:59:55.411Z,31.52
2022-08-05T20:02:26.279Z,31.50
2022-08-05T20:04:54.768Z,31.28
2022-08-05T20:07:46.829Z,31.21
2022-08-05T20:10:13.513Z,31.22
2022-08-05T20:12:47.607Z,31.31
2022-08-05T20:15:23.038Z,30.82
2022-08-05T20:18:10.333Z,30.88
2022-08-05T20:20:55.207Z,31.09
2022-08-05T20:23:40.385Z,31.08
2022-08-05T20:26:16.423Z,30.85
2022-08-05T20:28:56.250Z,30.94
2022-08-05T20:31:42.114Z,30.60
2022-08-05T20:34:14.130Z,30.72
2022-08-05T20:36:43.401Z,30.81
2022-08-05T20:39:13.340Z,30.90
2022-08-05T20:41:44.564Z,30.84
2022-08-05T20:44:30.269Z,30.82
2022-08-05T20:47:04.608Z,30.90
2022-08-05T20:49:39.322Z,30.85
2022-08-05T20:52:08.747Z,30.64
2022-08-05T20:54:58.948Z,30.62
2022-08-05T20:57:44.057Z,30.50
2022-08-05T21:00:41.270Z,30.22
2022-08-05T21:03:07.898Z,30.40
2022-08-05T21:05:53.505Z,30.71
2022-08-05T21:08:26.804Z,30.60
2022-08-05T21:12:06.543Z,30.84
2022-08-05T21:14:00.630Z,30.87
2022-08-05T21:16:29.921Z,30.96
2022-08-05T21:19:01.940Z,30.87
2022-08-05T21:21:39.019Z,30.88
2022-08-05T21:24:13.571Z,30.76
2022-08-05T21:26:47.213Z,30.59
2022-08-05T21:29:20.738Z,30.48
2022-08-05T21:31:53.378Z,30.32
2022-08-05T21:34:20.920Z,30.30
2022-08-05T21:36:49.321Z,30.41
2022-08-05T21:39:17.003Z,30.40
2022-08-05T21:42:01.483Z,30.39
2022-08-05T21:44:31.040Z,30.19
2022-08-05T21:46:59.227Z,30.21
2022-08-05T21:50:00.227Z,30.15
2022-08-05T21:52:21.972Z,30.16
2022-08-05T21:54:57.317Z,30.22
2022-08-05T21:57:32.615Z,30.09
2022-08-05T22:00:06.116Z,30.03
2022-08-05T22:02:39.883Z,30.46
2022-08-05T22:05:09.972Z,30.36
2022-08-05T22:07:40.508Z,30.07
2022-08-05T22:10:26.688Z,29.96
2022-08-05T22:14:05.002Z,30.22
2022-08-05T22:16:02.690Z,30.13
2022-08-05T22:18:33.441Z,30.23
2022-08-05T22:21:04.024Z,30.35
2022-08-05T22:24:02.128Z,30.11
2022-08-05T22:26:50.002Z,29.92
2022-08-05T22:29:18.682Z,29.55
2022-08-05T22:31:45.970Z,29.51
2022-08-05T22:34:28.343Z,29.48
2022-08-05T22:36:56.913Z,29.53
2022-08-05T22:39:33.249Z,29.60
2022-08-05T22:42:12.396Z,29.43
2022-08-05T22:44:42.659Z,29.32
2022-08-05T22:47:29.423Z,29.29
2022-08-05T22:50:18.158Z,29.20
2022-08-05T22:52:51.502Z,29.19
2022-08-05T22:55:21.651Z,29.22
2022-08-05T22:57:53.543Z,29.59
2022-08-05T23:00:23.419Z,29.27
2022-08-05T23:02:53.294Z,28.95
2022-08-05T23:05:21.921Z,28.97
2022-08-05T23:07:50.638Z,28.83
2022-08-05T23:10:23.499Z,29.00
2022-08-05T23:12:54.473Z,28.95
2022-08-05T23:15:29.400Z,29.06
2022-08-05T23:18:03.543Z,28.81
2022-08-05T23:20:37.417Z,29.04
2022-08-05T23:23:06.000Z,29.07
2022-08-05T23:25:51.688Z,28.99
2022-08-05T23:28:26.916Z,28.90
2022-08-05T23:31:16.046Z,28.52
2022-08-05T23:34:04.952Z,29.18
2022-08-05T23:36:40.261Z,29.11
2022-08-05T23:39:17.532Z,29.16
2022-08-05T23:42:00.342Z,29.31
2022-08-05T23:44:31.147Z,29.39
2022-08-05T23:47:02.645Z,29.40
2022-08-05T23:49:45.699Z,29.35
2022-08-05T23:52:35.998Z,29.30
2022-08-05T23:55:16.348Z,29.10
2022-08-05T23:57:44.769Z,29.15
